createdAt,value
2023-05-19T00:04:49.880Z,3.383362
2023-05-19T00:10:02.228Z,3.456924
2023-05-19T00:15:14.376Z,3.491409
2023-05-19T00:20:26.584Z,3.503616
2023-05-19T00:25:40.549Z,3.515411
2023-05-19T00:30:52.698Z,3.361633
2023-05-19T00:36:04.920Z,3.319138
2023-05-19T00:41:17.201Z,3.289764
2023-05-19T00:46:29.519Z,3.37645
2023-05-19T00:51:41.853Z,3.359024
2023-05-19T00:56:54.123Z,3.343948
2023-05-19T01:02:06.467Z,3.405182
2023-05-19T01:07:18.677Z,3.48967
2023-05-19T01:12:30.853Z,3.523651
2023-05-19T01:17:43.151Z,3.68129
2023-05-19T01:22:55.508Z,3.698578
2023-05-19T01:28:08.180Z,3.724625
2023-05-19T01:33:26.677Z,3.757767
2023-05-19T01:38:38.834Z,3.641129
2023-05-19T01:43:51.086Z,3.439713
2023-05-19T01:49:03.401Z,3.503052
2023-05-19T01:54:15.613Z,3.51355
2023-05-19T01:59:27.887Z,3.595444
2023-05-19T02:04:40.229Z,3.75415
2023-05-19T02:09:52.575Z,3.765747
2023-05-19T02:15:04.732Z,3.809464
2023-05-19T02:20:19.696Z,3.859253
2023-05-19T02:25:31.879Z,4.023666
2023-05-19T02:30:44.037Z,4.131149
2023-05-19T02:35:56.224Z,4.220673
2023-05-19T02:41:08.384Z,4.21196
2023-05-19T02:46:20.613Z,4.292587
2023-05-19T02:51:32.869Z,4.403519
2023-05-19T02:56:45.178Z,4.215393
2023-05-19T03:01:57.380Z,4.050964
2023-05-19T03:07:10.127Z,4.089539
2023-05-19T03:12:22.389Z,4.066254
2023-05-19T03:17:34.793Z,4.178513
2023-05-19T03:22:47.030Z,4.25206
2023-05-19T03:27:59.187Z,4.322739
2023-05-19T03:33:11.544Z,4.396973
2023-05-19T03:38:24.027Z,4.300888
2023-05-19T03:43:36.249Z,4.20282
2023-05-19T03:48:48.409Z,4.163193
2023-05-19T03:54:00.788Z,3.943054
2023-05-19T03:59:12.946Z,3.968674
2023-05-19T04:04:25.374Z,3.912277
2023-05-19T04:09:38.619Z,3.999832
2023-05-19T04:14:51.207Z,3.934677
2023-05-19T04:20:03.411Z,3.878082
2023-05-19T04:25:15.567Z,3.909592
2023-05-19T04:30:27.743Z,3.979156
2023-05-19T04:35:39.898Z,4.016418
2023-05-19T04:40:52.111Z,3.982178
2023-05-19T04:46:04.277Z,4.062256
2023-05-19T04:51:16.821Z,4.132385
2023-05-19T04:56:29.056Z,4.146667
2023-05-19T05:01:41.404Z,4.20578
2023-05-19T05:06:53.639Z,4.205292
2023-05-19T05:12:05.781Z,4.204987
2023-05-19T05:17:17.929Z,4.256165
2023-05-19T05:22:30.068Z,4.322845
2023-05-19T05:27:42.217Z,4.465759
2023-05-19T05:32:54.423Z,4.340317
2023-05-19T05:38:06.692Z,4.396454
2023-05-19T05:43:18.933Z,4.393036
2023-05-19T05:48:31.087Z,4.739456
2023-05-19T05:53:43.274Z,4.871964
2023-05-19T05:58:55.430Z,4.811096
2023-05-19T06:04:07.663Z,4.836243
2023-05-19T06:09:22.013Z,4.922607
2023-05-19T06:14:34.374Z,4.87146
2023-05-19T06:19:46.544Z,5.051895
2023-05-19T06:25:00.430Z,5.200851
2023-05-19T06:30:12.573Z,4.882172
2023-05-19T06:35:24.854Z,5.163788
2023-05-19T06:40:37.004Z,5.078506
2023-05-19T06:45:49.182Z,5.099503
2023-05-19T06:51:01.402Z,5.08931
2023-05-19T06:56:13.562Z,5.244064
2023-05-19T07:01:25.844Z,5.22438
2023-05-19T07:06:38.102Z,5.351257
2023-05-19T07:11:54.754Z,5.536057
2023-05-19T07:17:06.929Z,5.183395
2023-05-19T07:22:19.187Z,5.200821
2023-05-19T07:27:31.331Z,5.448517
2023-05-19T07:32:43.567Z,5.240631
2023-05-19T07:37:56.640Z,5.229767
2023-05-19T07:43:10.577Z,5.407944
2023-05-19T07:48:22.716Z,5.404526
2023-05-19T07:53:37.613Z,5.220779
2023-05-19T07:58:49.796Z,5.125885
2023-05-19T08:04:02.221Z,5.023697
2023-05-19T08:09:14.549Z,5.279984
2023-05-19T08:14:26.706Z,6.18927
2023-05-19T08:19:38.864Z,5.13063
2023-05-19T08:24:51.023Z,5.080414
2023-05-19T08:30:03.179Z,5.097595
2023-05-19T08:35:15.459Z,5.14505
2023-05-19T08:40:27.627Z,4.991302
2023-05-19T08:45:39.766Z,5.026901
2023-05-19T08:50:51.925Z,5.168411
2023-05-19T08:56:04.326Z,5.293304
2023-05-19T09:01:18.238Z,4.985321
2023-05-19T09:06:30.810Z,4.952774
2023-05-19T09:11:43.024Z,4.988388
2023-05-19T09:16:55.318Z,4.997299
2023-05-19T09:22:07.493Z,5.08374
2023-05-19T09:27:19.667Z,4.921722
2023-05-19T09:32:31.883Z,4.772797
2023-05-19T09:37:44.075Z,5.066849
2023-05-19T09:42:56.236Z,5.13559
2023-05-19T09:48:08.405Z,5.274658
2023-05-19T09:53:20.667Z,4.941177
2023-05-19T09:58:32.845Z,5.079575
2023-05-19T10:03:45.093Z,4.96698
2023-05-19T10:08:57.252Z,5.014969
2023-05-19T10:14:09.410Z,4.887405
2023-05-19T10:19:21.738Z,5.200348
2023-05-19T10:24:34.025Z,4.789688
2023-05-19T10:29:46.200Z,4.994507
2023-05-19T10:34:58.400Z,5.070633
2023-05-19T10:40:10.567Z,4.922119
2023-05-19T10:45:23.676Z,4.830658
2023-05-19T10:50:35.955Z,4.989716
2023-05-19T10:55:48.115Z,5.018677
2023-05-19T11:01:00.326Z,5.190613
2023-05-19T11:06:14.402Z,5.275864
2023-05-19T11:11:29.052Z,4.88768
2023-05-19T11:16:41.695Z,5.254974
2023-05-19T11:21:54.221Z,4.891937
2023-05-19T11:27:06.777Z,4.8983
2023-05-19T11:32:19.044Z,4.894089
2023-05-19T11:37:33.288Z,4.969711
2023-05-19T11:42:45.468Z,4.948654
2023-05-19T11:48:02.496Z,5.087738
2023-05-19T11:53:18.544Z,5.333603
2023-05-19T11:58:30.703Z,5.549408
2023-05-19T12:03:42.918Z,5.076859
2023-05-19T12:08:58.364Z,5.164474
2023-05-19T12:14:11.303Z,5.244339
2023-05-19T12:19:31.879Z,5.232895
2023-05-19T12:24:47.311Z,5.355606
2023-05-19T12:29:59.854Z,5.074341
2023-05-19T12:35:12.463Z,5.045166
2023-05-19T12:40:24.623Z,5.343796
2023-05-19T12:45:36.867Z,5.24086
2023-05-19T12:50:49.331Z,5.18959
2023-05-19T12:56:01.508Z,5.306915
2023-05-19T13:01:13.846Z,5.120422
2023-05-19T13:06:26.177Z,5.188568
2023-05-19T13:11:38.407Z,5.172119
2023-05-19T13:16:50.705Z,5.468506
2023-05-19T13:22:02.964Z,5.423889
2023-05-19T13:27:15.116Z,5.531845
2023-05-19T13:32:29.437Z,5.963135
2023-05-19T13:37:43.872Z,5.592743
2023-05-19T13:42:56.124Z,5.37085
2023-05-19T13:48:08.302Z,5.429306
2023-05-19T13:53:20.473Z,5.726212
2023-05-19T14:03:53.175Z,5.641754
2023-05-19T14:09:05.505Z,5.471542
2023-05-19T14:14:17.653Z,5.385147
2023-05-19T14:19:29.894Z,5.214005
2023-05-19T14:24:42.081Z,5.31044
2023-05-19T14:29:54.273Z,5.615326
2023-05-19T14:35:08.315Z,5.481949
2023-05-19T14:40:20.508Z,5.51619
2023-05-19T14:45:32.673Z,5.603088
2023-05-19T14:50:44.912Z,5.829086
2023-05-19T14:55:57.192Z,5.452484
2023-05-19T15:01:09.399Z,5.489319
2023-05-19T15:06:22.071Z,5.586639
2023-05-19T15:11:34.385Z,5.44368
2023-05-19T15:16:46.634Z,5.327682
2023-05-19T15:21:58.828Z,5.432632
2023-05-19T15:27:11.015Z,5.480988
2023-05-19T15:32:23.647Z,5.406448
2023-05-19T15:37:35.787Z,5.495285
2023-05-19T15:42:47.939Z,5.443588
2023-05-19T15:48:00.156Z,5.588593
2023-05-19T15:53:12.418Z,5.789841
2023-05-19T15:58:25.144Z,5.69162
2023-05-19T16:03:37.447Z,5.422379
2023-05-19T16:08:50.529Z,5.565948
2023-05-19T16:14:02.769Z,5.646744
2023-05-19T16:19:15.089Z,5.551392
2023-05-19T16:24:29.865Z,5.648758
2023-05-19T16:29:42.592Z,5.723495
2023-05-19T16:34:55.250Z,5.860321
2023-05-19T16:40:09.021Z,5.772614
2023-05-19T16:45:21.540Z,5.726074
2023-05-19T16:50:33.892Z,5.851852
2023-05-19T16:55:46.469Z,5.811935
2023-05-19T17:00:58.672Z,5.618973
2023-05-19T17:06:10.856Z,5.930557
2023-05-19T17:11:23.113Z,5.891068
2023-05-19T17:16:35.299Z,6.044785
2023-05-19T17:21:51.979Z,5.951141
2023-05-19T17:27:04.125Z,5.835083
2023-05-19T17:32:16.304Z,5.994965
2023-05-19T17:37:28.530Z,6.091629
2023-05-19T17:42:40.683Z,6.118271
2023-05-19T17:47:52.886Z,5.963623
2023-05-19T17:53:05.100Z,6.153564
2023-05-19T17:58:17.258Z,6.012009
2023-05-19T18:03:29.518Z,6.061172
2023-05-19T18:08:41.972Z,6.20166
2023-05-19T18:13:54.124Z,6.262207
2023-05-19T18:19:06.343Z,6.179688
2023-05-19T18:24:18.702Z,6.467728
2023-05-19T18:29:31.354Z,6.353806
2023-05-19T18:34:43.495Z,6.326797
2023-05-19T18:39:55.710Z,6.249649
2023-05-19T18:45:07.905Z,6.084152
2023-05-19T18:50:20.042Z,5.972382
2023-05-19T18:55:32.318Z,6.083435
2023-05-19T19:00:46.868Z,6.083496
2023-05-19T19:06:02.120Z,5.721786
2023-05-19T19:11:16.539Z,5.6772
2023-05-19T19:16:28.781Z,5.791168
2023-05-19T19:21:40.974Z,5.564743
2023-05-19T19:26:53.134Z,5.475342
2023-05-19T19:32:05.391Z,5.836075
2023-05-19T19:37:17.660Z,6.321365
2023-05-19T19:42:29.825Z,5.851929
2023-05-19T19:47:43.232Z,5.577438
2023-05-19T19:52:55.445Z,5.468018
2023-05-19T19:58:07.681Z,5.821243
2023-05-19T20:03:20.494Z,5.706085
2023-05-19T20:08:32.809Z,5.974854
2023-05-19T20:13:45.401Z,5.838791
2023-05-19T20:18:57.561Z,6.105759
2023-05-19T20:24:09.892Z,6.133057
2023-05-19T20:29:23.078Z,6.301773
2023-05-19T20:34:35.575Z,6.337341
2023-05-19T20:39:48.081Z,6.545303
2023-05-19T20:45:00.365Z,6.639587
2023-05-19T20:50:12.521Z,7.091461
2023-05-19T20:55:24.869Z,6.550751
2023-05-19T21:00:37.303Z,6.905792
2023-05-19T21:05:49.841Z,6.468643
2023-05-19T21:11:02.107Z,6.537247
2023-05-19T21:16:14.800Z,6.307892
2023-05-19T21:21:27.082Z,6.68103
2023-05-19T21:26:39.391Z,6.786194
2023-05-19T21:31:51.544Z,6.40654
2023-05-19T21:37:03.756Z,6.49379
2023-05-19T21:42:15.924Z,6.72522
2023-05-19T21:47:28.878Z,6.393509
2023-05-19T21:52:41.311Z,6.219696
2023-05-19T21:57:54.044Z,6.190231
2023-05-19T22:03:06.337Z,6.617752
2023-05-19T22:08:18.611Z,6.545593
2023-05-19T22:13:30.760Z,6.455322
2023-05-19T22:18:43.086Z,6.041275
2023-05-19T22:23:55.332Z,6.227707
2023-05-19T22:29:08.166Z,6.293961
2023-05-19T22:34:20.508Z,6.469025
2023-05-19T22:39:32.755Z,6.408142
2023-05-19T22:44:45.094Z,6.192551
2023-05-19T22:49:57.420Z,6.174667
2023-05-19T22:55:09.698Z,5.923584
2023-05-19T23:00:22.587Z,6.114136
2023-05-19T23:05:35.270Z,6.196533
2023-05-19T23:10:47.952Z,6.537308
2023-05-19T23:16:00.171Z,6.06633
2023-05-19T23:21:12.946Z,6.074921
2023-05-19T23:26:25.181Z,5.932785
2023-05-19T23:31:37.468Z,5.849625
2023-05-19T23:36:49.840Z,6.422089
2023-05-19T23:42:02.162Z,6.56572
2023-05-19T23:47:14.384Z,6.537613
2023-05-19T23:52:26.729Z,6.406616
2023-05-19T23:57:39.047Z,6.631104
